sensor_id;sensor_type;location;lat;lon;timestamp;P1;durP1;ratioP1;P2;durP2;ratioP2
26965;SDS011;14522;52.068;4.414;2022-09-09T00:06:59;7.50;;;2.05;;
26965;SDS011;14522;52.068;4.414;2022-09-09T00:09:28;6.80;;;1.67;;
26965;SDS011;14522;52.068;4.414;2022-09-09T00:12:00;6.93;;;2.17;;
26965;SDS011;14522;52.068;4.414;2022-09-09T00:14:50;3.63;;;1.20;;
26965;SDS011;14522;52.068;4.414;2022-09-09T00:17:26;4.22;;;1.33;;
26965;SDS011;14522;52.068;4.414;2022-09-09T00:19:59;11.38;;;2.08;;
26965;SDS011;14522;52.068;4.414;2022-09-09T00:22:28;5.13;;;1.77;;
26965;SDS011;14522;52.068;4.414;2022-09-09T00:30:17;4.97;;;2.03;;
26965;SDS011;14522;52.068;4.414;2022-09-09T00:32:46;2.40;;;1.23;;
26965;SDS011;14522;52.068;4.414;2022-09-09T00:35:15;3.08;;;1.50;;
26965;SDS011;14522;52.068;4.414;2022-09-09T00:37:42;8.02;;;2.35;;
26965;SDS011;14522;52.068;4.414;2022-09-09T00:40:18;3.53;;;1.80;;
26965;SDS011;14522;52.068;4.414;2022-09-09T00:42:48;3.63;;;1.35;;
26965;SDS011;14522;52.068;4.414;2022-09-09T00:45:54;4.13;;;1.90;;
26965;SDS011;14522;52.068;4.414;2022-09-09T00:48:12;3.17;;;1.65;;
26965;SDS011;14522;52.068;4.414;2022-09-09T00:50:45;6.03;;;1.92;;
26965;SDS011;14522;52.068;4.414;2022-09-09T00:58:07;6.22;;;2.10;;
26965;SDS011;14522;52.068;4.414;2022-09-09T01:03:25;3.88;;;1.92;;
26965;SDS011;14522;52.068;4.414;2022-09-09T01:10:56;5.80;;;2.20;;
26965;SDS011;14522;52.068;4.414;2022-09-09T01:13:28;4.78;;;2.15;;
26965;SDS011;14522;52.068;4.414;2022-09-09T01:15:58;2.72;;;1.55;;
26965;SDS011;14522;52.068;4.414;2022-09-09T01:18:28;6.63;;;2.10;;
26965;SDS011;14522;52.068;4.414;2022-09-09T01:21:00;3.85;;;2.15;;
26965;SDS011;14522;52.068;4.414;2022-09-09T01:23:38;4.55;;;1.45;;
26965;SDS011;14522;52.068;4.414;2022-09-09T01:29:02;5.60;;;1.65;;
26965;SDS011;14522;52.068;4.414;2022-09-09T01:34:19;5.05;;;1.95;;
26965;SDS011;14522;52.068;4.414;2022-09-09T01:36:49;2.92;;;1.33;;
26965;SDS011;14522;52.068;4.414;2022-09-09T01:39:19;4.30;;;2.78;;
26965;SDS011;14522;52.068;4.414;2022-09-09T01:41:45;2.10;;;1.15;;
26965;SDS011;14522;52.068;4.414;2022-09-09T01:44:12;6.07;;;2.97;;
26965;SDS011;14522;52.068;4.414;2022-09-09T01:46:38;4.43;;;1.90;;
26965;SDS011;14522;52.068;4.414;2022-09-09T01:49:05;6.05;;;2.75;;
26965;SDS011;14522;52.068;4.414;2022-09-09T01:51:33;6.70;;;2.55;;
26965;SDS011;14522;52.068;4.414;2022-09-09T01:54:00;6.78;;;2.10;;
26965;SDS011;14522;52.068;4.414;2022-09-09T01:56:44;4.63;;;2.22;;
26965;SDS011;14522;52.068;4.414;2022-09-09T02:02:10;5.63;;;2.45;;
26965;SDS011;14522;52.068;4.414;2022-09-09T02:05:21;3.40;;;1.45;;
26965;SDS011;14522;52.068;4.414;2022-09-09T02:07:48;4.82;;;1.23;;
26965;SDS011;14522;52.068;4.414;2022-09-09T02:13:02;4.28;;;1.42;;
26965;SDS011;14522;52.068;4.414;2022-09-09T02:16:13;3.65;;;1.08;;
26965;SDS011;14522;52.068;4.414;2022-09-09T02:18:30;5.70;;;1.08;;
26965;SDS011;14522;52.068;4.414;2022-09-09T02:20:58;6.63;;;1.40;;
26965;SDS011;14522;52.068;4.414;2022-09-09T02:23:25;2.92;;;0.90;;
26965;SDS011;14522;52.068;4.414;2022-09-09T02:25:53;2.67;;;0.75;;
26965;SDS011;14522;52.068;4.414;2022-09-09T02:28:21;6.53;;;0.93;;
26965;SDS011;14522;52.068;4.414;2022-09-09T02:30:50;4.25;;;0.90;;
26965;SDS011;14522;52.068;4.414;2022-09-09T02:33:27;4.68;;;0.68;;
26965;SDS011;14522;52.068;4.414;2022-09-09T02:35:55;2.47;;;0.77;;
26965;SDS011;14522;52.068;4.414;2022-09-09T02:38:29;2.35;;;0.70;;
26965;SDS011;14522;52.068;4.414;2022-09-09T02:40:58;2.53;;;0.70;;
26965;SDS011;14522;52.068;4.414;2022-09-09T02:43:24;3.88;;;0.80;;
26965;SDS011;14522;52.068;4.414;2022-09-09T02:46:01;3.22;;;1.00;;
26965;SDS011;14522;52.068;4.414;2022-09-09T02:48:38;4.10;;;0.77;;
26965;SDS011;14522;52.068;4.414;2022-09-09T02:53:48;3.45;;;0.98;;
26965;SDS011;14522;52.068;4.414;2022-09-09T02:56:19;4.78;;;1.00;;
26965;SDS011;14522;52.068;4.414;2022-09-09T02:58:47;3.67;;;1.17;;
26965;SDS011;14522;52.068;4.414;2022-09-09T03:01:14;3.65;;;1.08;;
26965;SDS011;14522;52.068;4.414;2022-09-09T03:03:40;3.40;;;0.82;;
26965;SDS011;14522;52.068;4.414;2022-09-09T03:06:08;2.75;;;0.82;;
26965;SDS011;14522;52.068;4.414;2022-09-09T03:08:36;3.92;;;0.88;;
26965;SDS011;14522;52.068;4.414;2022-09-09T03:11:02;4.28;;;1.10;;
26965;SDS011;14522;52.068;4.414;2022-09-09T03:13:29;6.35;;;0.95;;
26965;SDS011;14522;52.068;4.414;2022-09-09T03:15:55;2.47;;;0.80;;
26965;SDS011;14522;52.068;4.414;2022-09-09T03:18:21;3.10;;;0.80;;
26965;SDS011;14522;52.068;4.414;2022-09-09T03:20:49;2.42;;;0.77;;
26965;SDS011;14522;52.068;4.414;2022-09-09T03:23:15;2.40;;;0.60;;
26965;SDS011;14522;52.068;4.414;2022-09-09T03:25:51;6.13;;;0.90;;
26965;SDS011;14522;52.068;4.414;2022-09-09T03:28:18;5.57;;;0.93;;
26965;SDS011;14522;52.068;4.414;2022-09-09T03:30:44;2.05;;;0.93;;
26965;SDS011;14522;52.068;4.414;2022-09-09T03:33:11;2.85;;;1.27;;
26965;SDS011;14522;52.068;4.414;2022-09-09T03:35:38;5.75;;;1.00;;
26965;SDS011;14522;52.068;4.414;2022-09-09T03:38:05;10.15;;;1.02;;
26965;SDS011;14522;52.068;4.414;2022-09-09T03:40:32;3.70;;;1.02;;
26965;SDS011;14522;52.068;4.414;2022-09-09T03:42:58;1.38;;;0.52;;
26965;SDS011;14522;52.068;4.414;2022-09-09T03:45:25;4.63;;;0.80;;
26965;SDS011;14522;52.068;4.414;2022-09-09T03:47:52;5.10;;;1.10;;
26965;SDS011;14522;52.068;4.414;2022-09-09T03:50:18;5.75;;;1.20;;
26965;SDS011;14522;52.068;4.414;2022-09-09T03:52:44;1.90;;;0.45;;
26965;SDS011;14522;52.068;4.414;2022-09-09T03:55:12;5.90;;;1.00;;
26965;SDS011;14522;52.068;4.414;2022-09-09T03:57:38;3.33;;;0.95;;
26965;SDS011;14522;52.068;4.414;2022-09-09T04:00:05;1.42;;;0.57;;
26965;SDS011;14522;52.068;4.414;2022-09-09T04:02:33;3.83;;;1.00;;
26965;SDS011;14522;52.068;4.414;2022-09-09T04:04:59;6.60;;;1.77;;
26965;SDS011;14522;52.068;4.414;2022-09-09T04:07:26;3.80;;;0.65;;
26965;SDS011;14522;52.068;4.414;2022-09-09T04:09:53;2.38;;;0.80;;
26965;SDS011;14522;52.068;4.414;2022-09-09T04:12:20;4.10;;;0.70;;
26965;SDS011;14522;52.068;4.414;2022-09-09T04:14:48;4.95;;;0.80;;
26965;SDS011;14522;52.068;4.414;2022-09-09T04:17:15;4.70;;;0.98;;
26965;SDS011;14522;52.068;4.414;2022-09-09T04:19:41;5.63;;;1.15;;
26965;SDS011;14522;52.068;4.414;2022-09-09T04:22:08;3.92;;;1.05;;
26965;SDS011;14522;52.068;4.414;2022-09-09T04:24:35;10.80;;;1.55;;
26965;SDS011;14522;52.068;4.414;2022-09-09T04:27:02;4.18;;;0.85;;
26965;SDS011;14522;52.068;4.414;2022-09-09T04:29:28;5.00;;;0.73;;
26965;SDS011;14522;52.068;4.414;2022-09-09T04:31:54;5.47;;;1.83;;
26965;SDS011;14522;52.068;4.414;2022-09-09T04:34:21;3.35;;;0.82;;
26965;SDS011;14522;52.068;4.414;2022-09-09T04:36:47;5.70;;;0.98;;
26965;SDS011;14522;52.068;4.414;2022-09-09T04:39:14;6.55;;;1.23;;
26965;SDS011;14522;52.068;4.414;2022-09-09T04:41:40;6.97;;;1.20;;
26965;SDS011;14522;52.068;4.414;2022-09-09T04:44:07;3.90;;;0.90;;
26965;SDS011;14522;52.068;4.414;2022-09-09T04:46:33;3.13;;;0.40;;
26965;SDS011;14522;52.068;4.414;2022-09-09T04:49:00;3.08;;;1.00;;
26965;SDS011;14522;52.068;4.414;2022-09-09T04:51:26;12.68;;;1.38;;
26965;SDS011;14522;52.068;4.414;2022-09-09T04:53:54;4.57;;;0.90;;
26965;SDS011;14522;52.068;4.414;2022-09-09T04:56:20;4.57;;;0.80;;
26965;SDS011;14522;52.068;4.414;2022-09-09T04:58:47;2.80;;;0.82;;
26965;SDS011;14522;52.068;4.414;2022-09-09T05:01:15;6.50;;;1.10;;
26965;SDS011;14522;52.068;4.414;2022-09-09T05:03:42;4.13;;;1.15;;
26965;SDS011;14522;52.068;4.414;2022-09-09T05:06:09;4.75;;;1.23;;
26965;SDS011;14522;52.068;4.414;2022-09-09T05:08:37;3.15;;;1.50;;
26965;SDS011;14522;52.068;4.414;2022-09-09T05:11:12;5.28;;;1.38;;
26965;SDS011;14522;52.068;4.414;2022-09-09T05:13:38;8.95;;;1.63;;
26965;SDS011;14522;52.068;4.414;2022-09-09T05:16:06;5.65;;;1.77;;
26965;SDS011;14522;52.068;4.414;2022-09-09T05:18:33;4.55;;;1.67;;
26965;SDS011;14522;52.068;4.414;2022-09-09T05:20:59;6.68;;;1.65;;
26965;SDS011;14522;52.068;4.414;2022-09-09T05:23:26;5.82;;;1.63;;
26965;SDS011;14522;52.068;4.414;2022-09-09T05:25:55;4.20;;;0.98;;
26965;SDS011;14522;52.068;4.414;2022-09-09T05:28:23;3.97;;;1.20;;
26965;SDS011;14522;52.068;4.414;2022-09-09T05:31:00;3.60;;;1.20;;
26965;SDS011;14522;52.068;4.414;2022-09-09T05:33:30;4.47;;;1.27;;
26965;SDS011;14522;52.068;4.414;2022-09-09T05:36:03;4.07;;;1.13;;
26965;SDS011;14522;52.068;4.414;2022-09-09T05:38:31;5.47;;;1.55;;
26965;SDS011;14522;52.068;4.414;2022-09-09T05:40:59;7.88;;;2.22;;
26965;SDS011;14522;52.068;4.414;2022-09-09T05:43:27;7.90;;;1.67;;
26965;SDS011;14522;52.068;4.414;2022-09-09T05:46:14;6.63;;;1.17;;
26965;SDS011;14522;52.068;4.414;2022-09-09T05:48:41;8.15;;;1.48;;
26965;SDS011;14522;52.068;4.414;2022-09-09T05:51:10;6.10;;;1.42;;
26965;SDS011;14522;52.068;4.414;2022-09-09T05:53:38;5.45;;;1.08;;
26965;SDS011;14522;52.068;4.414;2022-09-09T05:56:08;6.47;;;1.10;;
26965;SDS011;14522;52.068;4.414;2022-09-09T05:58:36;3.50;;;0.88;;
26965;SDS011;14522;52.068;4.414;2022-09-09T06:01:07;3.97;;;0.80;;
26965;SDS011;14522;52.068;4.414;2022-09-09T06:03:34;9.23;;;1.55;;
26965;SDS011;14522;52.068;4.414;2022-09-09T06:06:01;5.38;;;1.35;;
26965;SDS011;14522;52.068;4.414;2022-09-09T06:08:32;8.10;;;1.45;;
26965;SDS011;14522;52.068;4.414;2022-09-09T06:11:02;8.77;;;1.65;;
26965;SDS011;14522;52.068;4.414;2022-09-09T06:13:29;5.05;;;1.23;;
26965;SDS011;14522;52.068;4.414;2022-09-09T06:15:56;7.13;;;1.40;;
26965;SDS011;14522;52.068;4.414;2022-09-09T06:18:23;5.15;;;0.98;;
26965;SDS011;14522;52.068;4.414;2022-09-09T06:20:53;6.10;;;1.45;;
26965;SDS011;14522;52.068;4.414;2022-09-09T06:23:20;8.45;;;1.38;;
26965;SDS011;14522;52.068;4.414;2022-09-09T06:25:46;7.75;;;1.40;;
26965;SDS011;14522;52.068;4.414;2022-09-09T06:28:13;5.25;;;1.02;;
26965;SDS011;14522;52.068;4.414;2022-09-09T06:30:39;6.05;;;1.05;;
26965;SDS011;14522;52.068;4.414;2022-09-09T06:33:06;3.70;;;1.13;;
26965;SDS011;14522;52.068;4.414;2022-09-09T06:35:33;8.35;;;1.88;;
26965;SDS011;14522;52.068;4.414;2022-09-09T06:38:00;5.20;;;1.70;;
26965;SDS011;14522;52.068;4.414;2022-09-09T06:40:26;4.10;;;1.77;;
26965;SDS011;14522;52.068;4.414;2022-09-09T06:42:53;5.47;;;1.88;;
26965;SDS011;14522;52.068;4.414;2022-09-09T06:45:19;3.70;;;1.05;;
26965;SDS011;14522;52.068;4.414;2022-09-09T06:47:45;8.48;;;2.17;;
26965;SDS011;14522;52.068;4.414;2022-09-09T06:50:12;9.35;;;1.42;;
26965;SDS011;14522;52.068;4.414;2022-09-09T06:52:38;6.90;;;1.75;;
26965;SDS011;14522;52.068;4.414;2022-09-09T06:55:05;3.67;;;0.95;;
26965;SDS011;14522;52.068;4.414;2022-09-09T06:57:31;2.90;;;0.88;;
26965;SDS011;14522;52.068;4.414;2022-09-09T07:00:03;7.68;;;1.58;;
26965;SDS011;14522;52.068;4.414;2022-09-09T07:02:29;12.23;;;1.70;;
26965;SDS011;14522;52.068;4.414;2022-09-09T07:04:56;4.95;;;0.95;;
26965;SDS011;14522;52.068;4.414;2022-09-09T07:07:24;8.25;;;1.63;;
26965;SDS011;14522;52.068;4.414;2022-09-09T07:09:51;5.40;;;1.33;;
26965;SDS011;14522;52.068;4.414;2022-09-09T07:12:17;8.18;;;1.70;;
26965;SDS011;14522;52.068;4.414;2022-09-09T07:14:43;6.47;;;1.70;;
26965;SDS011;14522;52.068;4.414;2022-09-09T07:17:10;11.10;;;2.50;;
26965;SDS011;14522;52.068;4.414;2022-09-09T07:19:36;5.15;;;1.08;;
26965;SDS011;14522;52.068;4.414;2022-09-09T07:22:03;7.95;;;1.98;;
26965;SDS011;14522;52.068;4.414;2022-09-09T07:24:29;5.57;;;1.45;;
26965;SDS011;14522;52.068;4.414;2022-09-09T07:26:56;9.50;;;1.70;;
26965;SDS011;14522;52.068;4.414;2022-09-09T07:29:23;5.90;;;1.42;;
26965;SDS011;14522;52.068;4.414;2022-09-09T07:31:49;8.13;;;1.63;;
26965;SDS011;14522;52.068;4.414;2022-09-09T07:34:16;4.65;;;1.40;;
26965;SDS011;14522;52.068;4.414;2022-09-09T07:36:42;6.30;;;2.17;;
26965;SDS011;14522;52.068;4.414;2022-09-09T07:39:10;9.48;;;1.40;;
26965;SDS011;14522;52.068;4.414;2022-09-09T07:41:47;7.13;;;1.70;;
26965;SDS011;14522;52.068;4.414;2022-09-09T07:44:14;12.68;;;1.70;;
26965;SDS011;14522;52.068;4.414;2022-09-09T07:46:41;9.18;;;1.92;;
26965;SDS011;14522;52.068;4.414;2022-09-09T07:49:08;6.00;;;1.50;;
26965;SDS011;14522;52.068;4.414;2022-09-09T07:51:36;6.65;;;1.60;;
26965;SDS011;14522;52.068;4.414;2022-09-09T07:54:04;7.50;;;1.48;;
26965;SDS011;14522;52.068;4.414;2022-09-09T07:56:31;5.68;;;1.75;;
26965;SDS011;14522;52.068;4.414;2022-09-09T07:58:59;9.10;;;1.98;;
26965;SDS011;14522;52.068;4.414;2022-09-09T08:01:27;9.20;;;1.70;;
26965;SDS011;14522;52.068;4.414;2022-09-09T08:03:55;8.40;;;1.77;;
26965;SDS011;14522;52.068;4.414;2022-09-09T08:06:25;9.65;;;1.40;;
26965;SDS011;14522;52.068;4.414;2022-09-09T08:08:53;5.32;;;1.17;;
26965;SDS011;14522;52.068;4.414;2022-09-09T08:11:21;7.72;;;1.45;;
26965;SDS011;14522;52.068;4.414;2022-09-09T08:13:49;7.28;;;1.30;;
26965;SDS011;14522;52.068;4.414;2022-09-09T08:16:24;3.80;;;1.17;;
26965;SDS011;14522;52.068;4.414;2022-09-09T08:18:51;6.15;;;1.25;;
26965;SDS011;14522;52.068;4.414;2022-09-09T08:21:19;2.97;;;1.38;;
26965;SDS011;14522;52.068;4.414;2022-09-09T08:23:46;5.22;;;1.25;;
26965;SDS011;14522;52.068;4.414;2022-09-09T08:26:16;6.75;;;1.55;;
26965;SDS011;14522;52.068;4.414;2022-09-09T08:28:43;5.93;;;0.98;;
26965;SDS011;14522;52.068;4.414;2022-09-09T08:31:14;7.00;;;1.52;;
26965;SDS011;14522;52.068;4.414;2022-09-09T08:33:41;7.13;;;1.27;;
26965;SDS011;14522;52.068;4.414;2022-09-09T08:36:09;7.50;;;1.40;;
26965;SDS011;14522;52.068;4.414;2022-09-09T08:38:36;4.20;;;0.98;;
26965;SDS011;14522;52.068;4.414;2022-09-09T08:41:50;12.35;;;1.65;;
26965;SDS011;14522;52.068;4.414;2022-09-09T08:43:50;5.55;;;1.00;;
26965;SDS011;14522;52.068;4.414;2022-09-09T08:46:21;4.72;;;1.13;;
26965;SDS011;14522;52.068;4.414;2022-09-09T08:48:57;6.03;;;0.93;;
26965;SDS011;14522;52.068;4.414;2022-09-09T08:51:25;4.43;;;1.02;;
26965;SDS011;14522;52.068;4.414;2022-09-09T08:53:52;4.90;;;0.70;;
26965;SDS011;14522;52.068;4.414;2022-09-09T08:56:25;6.63;;;1.55;;
26965;SDS011;14522;52.068;4.414;2022-09-09T08:58:53;8.35;;;0.98;;
26965;SDS011;14522;52.068;4.414;2022-09-09T09:06:41;7.90;;;1.80;;
26965;SDS011;14522;52.068;4.414;2022-09-09T09:19:14;6.68;;;1.05;;
26965;SDS011;14522;52.068;4.414;2022-09-09T09:21:45;5.47;;;1.15;;
26965;SDS011;14522;52.068;4.414;2022-09-09T09:24:24;10.52;;;1.80;;
26965;SDS011;14522;52.068;4.414;2022-09-09T09:26:52;6.70;;;1.33;;
26965;SDS011;14522;52.068;4.414;2022-09-09T09:29:19;6.45;;;1.23;;
26965;SDS011;14522;52.068;4.414;2022-09-09T09:31:47;6.20;;;1.25;;
26965;SDS011;14522;52.068;4.414;2022-09-09T09:34:14;6.20;;;1.45;;
26965;SDS011;14522;52.068;4.414;2022-09-09T09:36:44;4.03;;;0.88;;
26965;SDS011;14522;52.068;4.414;2022-09-09T09:39:22;8.48;;;1.75;;
26965;SDS011;14522;52.068;4.414;2022-09-09T09:42:09;7.07;;;1.40;;
26965;SDS011;14522;52.068;4.414;2022-09-09T09:44:36;6.28;;;1.45;;
26965;SDS011;14522;52.068;4.414;2022-09-09T09:47:07;4.25;;;1.13;;
26965;SDS011;14522;52.068;4.414;2022-09-09T09:49:34;6.07;;;1.35;;
26965;SDS011;14522;52.068;4.414;2022-09-09T09:52:01;5.43;;;0.88;;
26965;SDS011;14522;52.068;4.414;2022-09-09T09:54:28;4.95;;;1.20;;
26965;SDS011;14522;52.068;4.414;2022-09-09T09:56:56;9.40;;;2.13;;
26965;SDS011;14522;52.068;4.414;2022-09-09T10:02:21;11.75;;;1.75;;
26965;SDS011;14522;52.068;4.414;2022-09-09T10:05:04;6.80;;;1.40;;
26965;SDS011;14522;52.068;4.414;2022-09-09T10:07:31;4.32;;;1.15;;
26965;SDS011;14522;52.068;4.414;2022-09-09T10:09:59;5.47;;;1.38;;
26965;SDS011;14522;52.068;4.414;2022-09-09T10:20:42;7.05;;;1.63;;
26965;SDS011;14522;52.068;4.414;2022-09-09T10:38:39;6.00;;;1.73;;
26965;SDS011;14522;52.068;4.414;2022-09-09T10:41:18;4.72;;;1.00;;
26965;SDS011;14522;52.068;4.414;2022-09-09T10:56:18;3.17;;;1.05;;
26965;SDS011;14522;52.068;4.414;2022-09-09T10:58:56;3.05;;;0.90;;
26965;SDS011;14522;52.068;4.414;2022-09-09T11:01:27;4.15;;;1.20;;
26965;SDS011;14522;52.068;4.414;2022-09-09T11:04:04;4.75;;;1.27;;
26965;SDS011;14522;52.068;4.414;2022-09-09T11:06:35;4.22;;;1.38;;
26965;SDS011;14522;52.068;4.414;2022-09-09T11:09:03;4.28;;;1.05;;
26965;SDS011;14522;52.068;4.414;2022-09-09T11:11:39;3.75;;;0.90;;
26965;SDS011;14522;52.068;4.414;2022-09-09T11:19:23;4.50;;;1.10;;
26965;SDS011;14522;52.068;4.414;2022-09-09T11:21:51;5.38;;;1.30;;
26965;SDS011;14522;52.068;4.414;2022-09-09T11:26:47;4.45;;;0.98;;
26965;SDS011;14522;52.068;4.414;2022-09-09T11:39:44;7.80;;;1.38;;
26965;SDS011;14522;52.068;4.414;2022-09-09T11:44:43;8.68;;;1.42;;
26965;SDS011;14522;52.068;4.414;2022-09-09T11:47:16;2.65;;;0.88;;
26965;SDS011;14522;52.068;4.414;2022-09-09T11:54:47;2.70;;;0.80;;
26965;SDS011;14522;52.068;4.414;2022-09-09T11:59:50;7.43;;;1.50;;
26965;SDS011;14522;52.068;4.414;2022-09-09T12:02:25;6.05;;;1.42;;
26965;SDS011;14522;52.068;4.414;2022-09-09T12:04:57;3.97;;;0.88;;
26965;SDS011;14522;52.068;4.414;2022-09-09T12:07:31;2.65;;;0.80;;
26965;SDS011;14522;52.068;4.414;2022-09-09T12:12:44;7.13;;;1.00;;
26965;SDS011;14522;52.068;4.414;2022-09-09T12:17:45;3.92;;;1.05;;
26965;SDS011;14522;52.068;4.414;2022-09-09T12:33:36;4.82;;;0.90;;
26965;SDS011;14522;52.068;4.414;2022-09-09T12:36:03;4.82;;;0.73;;
26965;SDS011;14522;52.068;4.414;2022-09-09T12:38:36;6.45;;;1.80;;
26965;SDS011;14522;52.068;4.414;2022-09-09T12:41:03;2.88;;;0.80;;
26965;SDS011;14522;52.068;4.414;2022-09-09T12:43:29;3.15;;;0.82;;
26965;SDS011;14522;52.068;4.414;2022-09-09T12:46:00;2.88;;;0.73;;
26965;SDS011;14522;52.068;4.414;2022-09-09T12:48:29;3.05;;;0.73;;
26965;SDS011;14522;52.068;4.414;2022-09-09T12:50:57;1.90;;;0.68;;
26965;SDS011;14522;52.068;4.414;2022-09-09T12:53:26;2.55;;;0.95;;
26965;SDS011;14522;52.068;4.414;2022-09-09T12:55:58;3.80;;;1.15;;
26965;SDS011;14522;52.068;4.414;2022-09-09T12:58:25;2.72;;;0.80;;
26965;SDS011;14522;52.068;4.414;2022-09-09T13:00:55;4.93;;;0.70;;
26965;SDS011;14522;52.068;4.414;2022-09-09T13:03:25;3.25;;;0.65;;
26965;SDS011;14522;52.068;4.414;2022-09-09T13:05:52;2.70;;;0.60;;
26965;SDS011;14522;52.068;4.414;2022-09-09T13:08:19;2.17;;;0.73;;
26965;SDS011;14522;52.068;4.414;2022-09-09T13:13:28;3.30;;;0.75;;
26965;SDS011;14522;52.068;4.414;2022-09-09T13:15:56;4.60;;;0.50;;
26965;SDS011;14522;52.068;4.414;2022-09-09T13:18:24;3.72;;;0.80;;
26965;SDS011;14522;52.068;4.414;2022-09-09T13:20:52;2.95;;;0.63;;
26965;SDS011;14522;52.068;4.414;2022-09-09T13:23:19;2.70;;;0.82;;
26965;SDS011;14522;52.068;4.414;2022-09-09T13:25:53;2.45;;;0.65;;
26965;SDS011;14522;52.068;4.414;2022-09-09T13:28:21;4.43;;;0.98;;
26965;SDS011;14522;52.068;4.414;2022-09-09T13:30:59;5.28;;;0.82;;
26965;SDS011;14522;52.068;4.414;2022-09-09T13:33:38;1.48;;;0.47;;
26965;SDS011;14522;52.068;4.414;2022-09-09T13:36:08;3.13;;;0.80;;
26965;SDS011;14522;52.068;4.414;2022-09-09T13:38:38;5.72;;;0.70;;
26965;SDS011;14522;52.068;4.414;2022-09-09T13:41:07;5.25;;;0.80;;
26965;SDS011;14522;52.068;4.414;2022-09-09T13:43:38;4.07;;;1.00;;
26965;SDS011;14522;52.068;4.414;2022-09-09T13:46:06;4.55;;;0.52;;
26965;SDS011;14522;52.068;4.414;2022-09-09T13:49:21;2.90;;;0.65;;
26965;SDS011;14522;52.068;4.414;2022-09-09T13:51:41;0.68;;;0.30;;
26965;SDS011;14522;52.068;4.414;2022-09-09T13:54:09;2.30;;;0.60;;
26965;SDS011;14522;52.068;4.414;2022-09-09T13:56:36;1.13;;;0.40;;
26965;SDS011;14522;52.068;4.414;2022-09-09T13:59:03;0.90;;;0.30;;
26965;SDS011;14522;52.068;4.414;2022-09-09T14:01:29;1.88;;;0.40;;
26965;SDS011;14522;52.068;4.414;2022-09-09T14:03:56;1.75;;;0.30;;
26965;SDS011;14522;52.068;4.414;2022-09-09T14:06:22;2.15;;;0.32;;
26965;SDS011;14522;52.068;4.414;2022-09-09T14:08:50;3.08;;;0.40;;
26965;SDS011;14522;52.068;4.414;2022-09-09T14:11:17;4.40;;;1.10;;
26965;SDS011;14522;52.068;4.414;2022-09-09T14:13:44;1.17;;;0.32;;
26965;SDS011;14522;52.068;4.414;2022-09-09T14:16:10;3.05;;;0.57;;
26965;SDS011;14522;52.068;4.414;2022-09-09T14:18:37;2.00;;;0.50;;
26965;SDS011;14522;52.068;4.414;2022-09-09T14:21:05;4.47;;;0.60;;
26965;SDS011;14522;52.068;4.414;2022-09-09T14:23:31;2.75;;;0.60;;
26965;SDS011;14522;52.068;4.414;2022-09-09T14:25:58;4.80;;;0.90;;
26965;SDS011;14522;52.068;4.414;2022-09-09T14:28:24;3.28;;;0.73;;
26965;SDS011;14522;52.068;4.414;2022-09-09T14:31:11;7.35;;;1.05;;
26965;SDS011;14522;52.068;4.414;2022-09-09T14:33:39;3.40;;;1.05;;
26965;SDS011;14522;52.068;4.414;2022-09-09T14:36:06;3.35;;;0.75;;
26965;SDS011;14522;52.068;4.414;2022-09-09T14:38:33;7.40;;;1.00;;
26965;SDS011;14522;52.068;4.414;2022-09-09T14:41:00;4.95;;;0.77;;
26965;SDS011;14522;52.068;4.414;2022-09-09T14:43:29;7.00;;;1.02;;
26965;SDS011;14522;52.068;4.414;2022-09-09T14:45:56;2.47;;;0.63;;
26965;SDS011;14522;52.068;4.414;2022-09-09T14:48:22;3.65;;;1.13;;
26965;SDS011;14522;52.068;4.414;2022-09-09T14:50:48;4.45;;;0.80;;
26965;SDS011;14522;52.068;4.414;2022-09-09T14:53:16;5.88;;;0.80;;
26965;SDS011;14522;52.068;4.414;2022-09-09T14:55:43;5.13;;;0.85;;
26965;SDS011;14522;52.068;4.414;2022-09-09T14:58:09;2.75;;;0.68;;
26965;SDS011;14522;52.068;4.414;2022-09-09T15:00:36;6.20;;;1.00;;
26965;SDS011;14522;52.068;4.414;2022-09-09T15:03:02;6.88;;;1.00;;
26965;SDS011;14522;52.068;4.414;2022-09-09T15:05:29;5.35;;;0.98;;
26965;SDS011;14522;52.068;4.414;2022-09-09T15:07:56;6.57;;;0.93;;
26965;SDS011;14522;52.068;4.414;2022-09-09T15:10:22;3.50;;;0.80;;
26965;SDS011;14522;52.068;4.414;2022-09-09T15:12:49;4.90;;;1.00;;
26965;SDS011;14522;52.068;4.414;2022-09-09T15:15:15;5.65;;;1.00;;
26965;SDS011;14522;52.068;4.414;2022-09-09T15:17:43;5.43;;;1.00;;
26965;SDS011;14522;52.068;4.414;2022-09-09T15:20:09;4.63;;;0.93;;
26965;SDS011;14522;52.068;4.414;2022-09-09T15:22:36;7.25;;;1.30;;
26965;SDS011;14522;52.068;4.414;2022-09-09T15:25:04;2.85;;;0.50;;
26965;SDS011;14522;52.068;4.414;2022-09-09T15:27:31;2.60;;;0.50;;
26965;SDS011;14522;52.068;4.414;2022-09-09T15:29:58;3.40;;;0.60;;
26965;SDS011;14522;52.068;4.414;2022-09-09T15:32:24;3.33;;;1.40;;
26965;SDS011;14522;52.068;4.414;2022-09-09T15:34:50;6.43;;;1.13;;
26965;SDS011;14522;52.068;4.414;2022-09-09T15:37:18;7.25;;;1.20;;
26965;SDS011;14522;52.068;4.414;2022-09-09T15:39:44;6.78;;;1.30;;
26965;SDS011;14522;52.068;4.414;2022-09-09T15:42:11;4.97;;;1.05;;
26965;SDS011;14522;52.068;4.414;2022-09-09T15:44:38;3.88;;;1.45;;
26965;SDS011;14522;52.068;4.414;2022-09-09T15:47:04;2.80;;;0.77;;
26965;SDS011;14522;52.068;4.414;2022-09-09T15:49:31;5.82;;;1.02;;
26965;SDS011;14522;52.068;4.414;2022-09-09T15:51:58;4.03;;;1.02;;
26965;SDS011;14522;52.068;4.414;2022-09-09T15:54:25;4.22;;;0.90;;
26965;SDS011;14522;52.068;4.414;2022-09-09T15:56:53;4.32;;;0.95;;
26965;SDS011;14522;52.068;4.414;2022-09-09T15:59:22;3.45;;;0.88;;
26965;SDS011;14522;52.068;4.414;2022-09-09T16:01:48;4.43;;;1.00;;
26965;SDS011;14522;52.068;4.414;2022-09-09T16:04:17;3.92;;;0.95;;
26965;SDS011;14522;52.068;4.414;2022-09-09T16:06:50;5.50;;;1.17;;
26965;SDS011;14522;52.068;4.414;2022-09-09T16:09:17;4.18;;;1.00;;
26965;SDS011;14522;52.068;4.414;2022-09-09T16:11:43;3.60;;;0.80;;
26965;SDS011;14522;52.068;4.414;2022-09-09T16:14:09;3.80;;;1.02;;
26965;SDS011;14522;52.068;4.414;2022-09-09T16:16:37;3.15;;;0.95;;
26965;SDS011;14522;52.068;4.414;2022-09-09T16:19:05;3.53;;;1.50;;
26965;SDS011;14522;52.068;4.414;2022-09-09T16:21:36;7.60;;;2.70;;
26965;SDS011;14522;52.068;4.414;2022-09-09T16:24:04;6.72;;;2.38;;
26965;SDS011;14522;52.068;4.414;2022-09-09T16:26:31;5.43;;;1.70;;
26965;SDS011;14522;52.068;4.414;2022-09-09T16:28:59;4.35;;;1.58;;
26965;SDS011;14522;52.068;4.414;2022-09-09T16:31:26;6.97;;;1.92;;
26965;SDS011;14522;52.068;4.414;2022-09-09T16:33:53;8.00;;;1.77;;
26965;SDS011;14522;52.068;4.414;2022-09-09T16:38:46;7.72;;;2.33;;
26965;SDS011;14522;52.068;4.414;2022-09-09T16:41:13;8.00;;;2.58;;
26965;SDS011;14522;52.068;4.414;2022-09-09T16:43:40;3.40;;;1.63;;
26965;SDS011;14522;52.068;4.414;2022-09-09T16:46:14;6.43;;;1.98;;
26965;SDS011;14522;52.068;4.414;2022-09-09T16:48:42;9.75;;;2.60;;
26965;SDS011;14522;52.068;4.414;2022-09-09T16:51:11;9.07;;;2.85;;
26965;SDS011;14522;52.068;4.414;2022-09-09T16:53:40;8.85;;;3.00;;
26965;SDS011;14522;52.068;4.414;2022-09-09T16:56:10;10.73;;;3.13;;
26965;SDS011;14522;52.068;4.414;2022-09-09T16:58:36;7.20;;;3.22;;
26965;SDS011;14522;52.068;4.414;2022-09-09T17:01:03;5.18;;;2.05;;
26965;SDS011;14522;52.068;4.414;2022-09-09T17:03:30;7.15;;;2.95;;
26965;SDS011;14522;52.068;4.414;2022-09-09T17:05:58;7.22;;;2.53;;
26965;SDS011;14522;52.068;4.414;2022-09-09T17:08:28;3.47;;;1.52;;
26965;SDS011;14522;52.068;4.414;2022-09-09T17:10:56;4.53;;;2.50;;
26965;SDS011;14522;52.068;4.414;2022-09-09T17:13:22;7.97;;;2.13;;
26965;SDS011;14522;52.068;4.414;2022-09-09T17:15:49;2.63;;;1.50;;
26965;SDS011;14522;52.068;4.414;2022-09-09T17:18:15;3.13;;;1.55;;
26965;SDS011;14522;52.068;4.414;2022-09-09T17:20:43;5.50;;;1.52;;
26965;SDS011;14522;52.068;4.414;2022-09-09T17:23:12;5.15;;;1.88;;